createdAt,value
2023-01-19T00:00:44.662Z,0.99
2023-01-19T00:06:08.377Z,0.95
2023-01-19T00:11:12.826Z,0.93
2023-01-19T00:16:20.046Z,0.91
2023-01-19T00:21:23.516Z,0.87
2023-01-19T00:26:26.528Z,0.85
2023-01-19T00:31:30.248Z,0.83
2023-01-19T00:36:33.996Z,0.79
2023-01-19T00:41:55.512Z,0.75
2023-01-19T00:46:58.520Z,0.71
2023-01-19T00:52:01.745Z,0.70
2023-01-19T00:57:05.147Z,0.68
2023-01-19T01:02:08.661Z,0.65
2023-01-19T01:07:11.874Z,0.62
2023-01-19T01:12:14.983Z,0.59
2023-01-19T01:17:18.278Z,0.57
2023-01-19T01:22:21.196Z,0.54
2023-01-19T01:27:24.107Z,0.50
2023-01-19T01:32:27.108Z,0.48
2023-01-19T01:37:30.112Z,0.48
2023-01-19T01:42:34.698Z,0.47
2023-01-19T01:47:47.802Z,0.46
2023-01-19T01:53:14.116Z,0.45
2023-01-19T01:58:17.433Z,0.44
2023-01-19T02:03:23.459Z,0.43
2023-01-19T02:09:37.622Z,0.42
2023-01-19T02:14:40.623Z,0.42
2023-01-19T02:19:44.015Z,0.44
2023-01-19T02:24:47.265Z,0.43
2023-01-19T02:29:50.269Z,0.45
2023-01-19T02:34:53.575Z,0.45
2023-01-19T02:39:59.347Z,0.46
2023-01-19T02:45:06.881Z,0.45
2023-01-19T02:50:29.559Z,0.46
2023-01-19T02:55:34.340Z,0.49
2023-01-19T03:00:48.086Z,0.52
2023-01-19T03:05:57.149Z,0.45
2023-01-19T03:11:08.388Z,0.35
2023-01-19T03:16:34.548Z,0.26
2023-01-19T03:21:40.716Z,0.18
2023-01-19T03:26:49.349Z,0.19
2023-01-19T03:31:54.140Z,0.23
2023-01-19T03:37:02.491Z,0.22
2023-01-19T03:42:09.636Z,0.19
2023-01-19T03:47:15.134Z,0.11
2023-01-19T03:52:18.102Z,0.01
2023-01-19T03:57:21.417Z,-0.07
2023-01-19T04:02:25.182Z,-0.16
2023-01-19T04:07:28.650Z,-0.29
2023-01-19T04:12:31.768Z,-0.42
2023-01-19T04:17:34.873Z,-0.54
2023-01-19T04:22:39.317Z,-0.65
2023-01-19T04:27:42.417Z,-0.73
2023-01-19T04:32:45.629Z,-0.83
2023-01-19T04:37:48.749Z,-0.85
2023-01-19T04:42:51.847Z,-0.76
2023-01-19T04:47:54.955Z,-0.64
2023-01-19T04:52:58.477Z,-0.49
2023-01-19T04:58:01.705Z,-0.36
2023-01-19T05:03:05.396Z,-0.28
2023-01-19T05:08:08.828Z,-0.19
2023-01-19T05:13:11.831Z,-0.11
2023-01-19T05:18:14.835Z,-0.08
2023-01-19T05:23:18.052Z,-0.09
2023-01-19T05:28:21.873Z,-0.08
2023-01-19T05:33:25.597Z,-0.08
2023-01-19T05:38:35.390Z,-0.07
2023-01-19T05:43:38.882Z,-0.08
2023-01-19T05:48:41.784Z,-0.10
2023-01-19T05:53:44.994Z,-0.12
2023-01-19T05:58:48.101Z,-0.14
2023-01-19T06:03:51.211Z,-0.17
2023-01-19T06:08:54.636Z,-0.23
2023-01-19T06:13:57.747Z,-0.26
2023-01-19T06:19:00.742Z,-0.28
2023-01-19T06:24:04.362Z,-0.29
2023-01-19T06:29:07.275Z,-0.33
2023-01-19T06:34:10.954Z,-0.39
2023-01-19T06:39:13.892Z,-0.45
2023-01-19T06:44:17.009Z,-0.49
2023-01-19T06:49:20.013Z,-0.55
2023-01-19T06:54:23.117Z,-0.59
2023-01-19T06:59:26.329Z,-0.60
2023-01-19T07:04:29.441Z,-0.58
2023-01-19T07:09:32.348Z,-0.56
2023-01-19T07:14:35.355Z,-0.55
2023-01-19T07:19:38.353Z,-0.54
2023-01-19T07:24:41.685Z,-0.50
2023-01-19T07:29:44.676Z,-0.47
2023-01-19T07:34:47.889Z,-0.45
2023-01-19T07:39:50.997Z,-0.43
2023-01-19T07:44:54.103Z,-0.41
2023-01-19T07:49:57.166Z,-0.41
2023-01-19T07:55:00.037Z,-0.39
2023-01-19T08:00:05.124Z,-0.35
2023-01-19T08:05:08.677Z,-0.32
2023-01-19T08:10:13.624Z,-0.31
2023-01-19T08:15:16.684Z,-0.29
2023-01-19T08:20:19.662Z,-0.23
2023-01-19T08:25:23.690Z,-0.16
2023-01-19T08:30:27.074Z,-0.10
2023-01-19T08:35:43.455Z,-0.02
2023-01-19T08:40:46.948Z,0.06
2023-01-19T08:45:53.451Z,0.15
2023-01-19T08:50:57.187Z,0.20
2023-01-19T08:56:01.485Z,0.26
2023-01-19T09:01:05.457Z,0.37
2023-01-19T09:06:10.364Z,0.43
2023-01-19T09:11:15.118Z,0.49
2023-01-19T09:16:18.460Z,0.54
2023-01-19T09:21:21.644Z,0.56
2023-01-19T09:26:24.754Z,0.62
2023-01-19T09:31:27.858Z,0.71
2023-01-19T09:36:31.170Z,0.82
2023-01-19T09:41:36.847Z,0.95
2023-01-19T09:46:44.516Z,1.08
2023-01-19T09:51:50.646Z,1.18
2023-01-19T09:56:54.354Z,1.23
2023-01-19T10:02:33.522Z,1.25
2023-01-19T10:07:54.946Z,1.30
2023-01-19T10:13:19.768Z,1.37
2023-01-19T10:18:48.783Z,1.46
2023-01-19T10:23:54.845Z,1.51
2023-01-19T10:29:03.086Z,1.53
2023-01-19T10:34:06.126Z,1.50
2023-01-19T10:39:13.853Z,1.46
2023-01-19T10:44:25.677Z,1.47
2023-01-19T10:49:39.286Z,1.52
2023-01-19T10:54:43.806Z,1.56
2023-01-19T10:59:51.154Z,1.62
2023-01-19T11:04:57.251Z,1.74
2023-01-19T11:10:25.943Z,1.86
2023-01-19T11:15:35.955Z,1.96
2023-01-19T11:20:51.355Z,1.94
2023-01-19T11:25:58.398Z,1.87
2023-01-19T11:31:10.362Z,1.85
2023-01-19T11:36:39.831Z,1.88
2023-01-19T11:41:43.048Z,1.90
2023-01-19T11:46:51.147Z,1.93
2023-01-19T11:52:07.087Z,1.93
2023-01-19T11:57:13.877Z,1.93
2023-01-19T12:02:45.057Z,1.90
2023-01-19T12:07:50.306Z,1.84
2023-01-19T12:12:54.438Z,1.81
2023-01-19T12:18:00.810Z,1.77
2023-01-19T12:23:03.942Z,1.76
2023-01-19T12:28:12.974Z,1.80
2023-01-19T12:33:33.603Z,1.84
2023-01-19T12:38:55.039Z,1.84
2023-01-19T12:44:10.036Z,1.83
2023-01-19T12:49:37.806Z,1.86
2023-01-19T12:54:50.402Z,1.90
2023-01-19T13:00:02.255Z,1.90
2023-01-19T13:05:25.726Z,1.88
2023-01-19T13:10:59.878Z,1.87
2023-01-19T13:16:30.019Z,1.82
2023-01-19T13:21:47.566Z,1.74
2023-01-19T13:26:50.677Z,1.71
2023-01-19T13:32:02.615Z,1.68
2023-01-19T13:37:06.639Z,1.64
2023-01-19T13:42:28.865Z,1.59
2023-01-19T13:47:39.284Z,1.52
2023-01-19T13:52:43.491Z,1.45
2023-01-19T13:57:49.061Z,1.41
2023-01-19T14:03:10.991Z,1.38
2023-01-19T14:08:15.779Z,1.33
2023-01-19T14:13:20.197Z,1.27
2023-01-19T14:18:31.576Z,1.22
2023-01-19T14:23:51.705Z,1.17
2023-01-19T14:28:54.916Z,1.13
2023-01-19T14:33:58.739Z,1.07
2023-01-19T14:39:03.234Z,1.00
2023-01-19T14:44:20.047Z,0.95
2023-01-19T14:49:34.098Z,0.91
2023-01-19T14:54:43.029Z,0.89
2023-01-19T14:59:49.846Z,0.87
2023-01-19T15:04:55.527Z,0.85
2023-01-19T15:09:59.492Z,0.84
2023-01-19T15:15:02.792Z,0.83
2023-01-19T15:20:13.721Z,0.81
2023-01-19T15:25:19.796Z,0.81
2023-01-19T15:30:29.757Z,0.80
2023-01-19T15:35:32.880Z,0.79
2023-01-19T15:40:35.990Z,0.78
2023-01-19T15:45:55.304Z,0.78
2023-01-19T15:50:58.382Z,0.79
2023-01-19T15:56:01.394Z,0.78
2023-01-19T16:01:04.849Z,0.80
2023-01-19T16:06:08.853Z,0.81
2023-01-19T16:11:14.919Z,0.83
2023-01-19T16:16:20.978Z,0.85
2023-01-19T16:21:24.398Z,0.87
2023-01-19T16:26:27.557Z,0.87
2023-01-19T16:31:30.638Z,0.89
2023-01-19T16:36:35.900Z,0.89
2023-01-19T16:41:39.307Z,0.88
2023-01-19T16:46:44.867Z,0.86
2023-01-19T16:51:49.094Z,0.84
2023-01-19T16:56:53.340Z,0.81
2023-01-19T17:01:57.191Z,0.78
2023-01-19T17:07:00.378Z,0.77
2023-01-19T17:12:04.264Z,0.77
2023-01-19T17:17:09.956Z,0.78
2023-01-19T17:22:14.391Z,0.78
2023-01-19T17:27:17.514Z,0.78
2023-01-19T17:32:20.428Z,0.76
2023-01-19T17:37:23.430Z,0.72
2023-01-19T17:42:26.747Z,0.69
2023-01-19T17:47:29.850Z,0.66
2023-01-19T17:52:33.077Z,0.64
2023-01-19T17:57:36.648Z,0.64
2023-01-19T18:02:40.486Z,0.62
2023-01-19T18:07:43.716Z,0.61
2023-01-19T18:12:46.628Z,0.61
2023-01-19T18:17:49.628Z,0.61
2023-01-19T18:22:52.737Z,0.62
2023-01-19T18:27:55.641Z,0.63
2023-01-19T18:32:58.655Z,0.65
2023-01-19T18:38:01.661Z,0.66
2023-01-19T18:43:04.767Z,0.65
2023-01-19T18:48:08.166Z,0.67
2023-01-19T18:53:11.088Z,0.69
2023-01-19T18:58:14.096Z,0.72
2023-01-19T19:03:17.870Z,0.74
2023-01-19T19:08:20.825Z,0.76
2023-01-19T19:13:23.823Z,0.76
2023-01-19T19:18:26.832Z,0.73
2023-01-19T19:23:29.843Z,0.67
2023-01-19T19:28:33.627Z,0.64
2023-01-19T19:33:38.519Z,0.60
2023-01-19T19:38:43.072Z,0.58
2023-01-19T19:43:46.169Z,0.58
2023-01-19T19:48:49.818Z,0.59
2023-01-19T19:53:55.356Z,0.62
2023-01-19T19:58:59.661Z,0.64
2023-01-19T20:04:08.919Z,0.64
2023-01-19T20:09:14.149Z,0.64
2023-01-19T20:14:17.303Z,0.63
2023-01-19T20:19:20.389Z,0.61
2023-01-19T20:24:23.527Z,0.57
2023-01-19T20:29:26.643Z,0.53
2023-01-19T20:34:33.357Z,0.51
2023-01-19T20:39:37.366Z,0.46
2023-01-19T20:44:40.473Z,0.44
2023-01-19T20:49:43.685Z,0.43
2023-01-19T20:54:46.903Z,0.42
2023-01-19T20:59:50.125Z,0.39
2023-01-19T21:04:54.859Z,0.33
2023-01-19T21:09:58.557Z,0.28
2023-01-19T21:15:02.319Z,0.27
2023-01-19T21:20:06.644Z,0.29
2023-01-19T21:25:10.183Z,0.28
2023-01-19T21:30:13.471Z,0.27
2023-01-19T21:35:16.796Z,0.27
2023-01-19T21:40:19.908Z,0.29
2023-01-19T21:45:23.332Z,0.30
2023-01-19T21:50:26.529Z,0.33
2023-01-19T21:55:30.159Z,0.39
2023-01-19T22:00:33.251Z,0.46
2023-01-19T22:05:37.205Z,0.50
2023-01-19T22:10:40.155Z,0.56
2023-01-19T22:15:43.090Z,0.58
2023-01-19T22:20:46.095Z,0.63
2023-01-19T22:25:49.328Z,0.70
2023-01-19T22:30:52.638Z,0.78
2023-01-19T22:35:55.725Z,0.83
2023-01-19T22:40:58.732Z,0.87
2023-01-19T22:46:02.482Z,0.90
2023-01-19T22:51:06.805Z,0.88
2023-01-19T22:56:11.617Z,0.88
2023-01-19T23:01:22.929Z,0.86
2023-01-19T23:06:28.823Z,0.84
2023-01-19T23:11:43.907Z,0.82
2023-01-19T23:16:47.521Z,0.78
2023-01-19T23:21:53.039Z,0.76
2023-01-19T23:26:55.997Z,0.76
2023-01-19T23:31:59.211Z,0.79
2023-01-19T23:37:02.319Z,0.78
2023-01-19T23:42:06.554Z,0.78
2023-01-19T23:47:09.760Z,0.74
2023-01-19T23:52:12.973Z,0.69
2023-01-19T23:57:15.982Z,0.63
